createdAt,value
2023-04-21T02:12:37.782Z,10.97
2023-04-21T02:13:37.764Z,10.99
2023-04-21T02:14:37.758Z,11.04
2023-04-21T02:15:37.889Z,11.02
2023-04-21T02:16:37.836Z,10.97
2023-04-21T02:17:37.798Z,10.99
2023-04-21T02:18:37.768Z,11.00
2023-04-21T02:19:37.790Z,10.97
2023-04-21T02:20:37.774Z,11.02
2023-04-21T02:21:37.784Z,10.96
2023-04-21T02:22:37.789Z,10.97
2023-04-21T02:23:37.786Z,10.93
2023-04-21T02:24:37.788Z,10.99
2023-04-21T02:25:37.803Z,10.90
2023-04-21T02:26:37.809Z,11.02
2023-04-21T02:27:37.808Z,11.00
2023-04-21T02:28:37.826Z,10.96
2023-04-21T02:29:37.807Z,10.94
2023-04-21T02:30:37.814Z,10.96
2023-04-21T02:31:49.647Z,10.96
2023-04-21T02:32:37.906Z,11.00
2023-04-21T02:33:37.840Z,10.96
2023-04-21T02:34:37.826Z,10.99
2023-04-21T02:35:37.853Z,10.93
2023-04-21T02:36:37.842Z,10.90
2023-04-21T02:37:37.836Z,11.00
2023-04-21T02:38:37.844Z,11.00
2023-04-21T02:39:37.853Z,10.90
2023-04-21T02:40:37.867Z,11.04
2023-04-21T02:41:37.888Z,10.90
2023-04-21T02:42:37.883Z,10.94
2023-04-21T02:43:37.869Z,11.00
2023-04-21T02:44:37.908Z,10.99
2023-04-21T02:45:37.876Z,10.93
2023-04-21T02:46:37.913Z,11.00
2023-04-21T02:47:37.885Z,10.94
2023-04-21T02:48:37.895Z,10.96
2023-04-21T02:49:37.890Z,10.97
2023-04-21T02:50:37.898Z,10.97
2023-04-21T02:51:37.906Z,10.93
2023-04-21T02:52:37.940Z,10.99
2023-04-21T02:53:37.905Z,11.02
2023-04-21T02:54:37.918Z,10.89
2023-04-21T02:55:37.923Z,10.97
2023-04-21T02:56:37.918Z,10.96
2023-04-21T02:57:37.939Z,10.99
2023-04-21T02:58:37.925Z,10.89
2023-04-21T02:59:37.946Z,10.97
2023-04-21T03:00:38.029Z,10.97
2023-04-21T03:01:37.941Z,10.97
2023-04-21T03:02:38.065Z,10.94
2023-04-21T03:03:38.042Z,10.90
2023-04-21T03:04:38.039Z,10.84
2023-04-21T03:05:37.966Z,10.93
2023-04-21T03:06:37.968Z,10.84
2023-04-21T03:07:37.968Z,10.86
2023-04-21T03:08:37.970Z,10.84
2023-04-21T03:09:37.983Z,10.82
2023-04-21T03:10:37.998Z,10.75
2023-04-21T03:11:37.995Z,10.76
2023-04-21T03:12:37.994Z,10.82
2023-04-21T03:13:38.000Z,10.81
2023-04-21T03:14:38.005Z,10.76
2023-04-21T03:15:38.001Z,10.81
2023-04-21T03:16:38.112Z,10.79
2023-04-21T03:17:38.038Z,10.87
2023-04-21T03:18:38.025Z,10.76
2023-04-21T03:19:38.023Z,10.86
2023-04-21T03:20:38.029Z,10.87
2023-04-21T03:21:38.027Z,10.76
2023-04-21T03:22:38.035Z,10.82
2023-04-21T03:23:38.050Z,10.75
2023-04-21T03:24:38.053Z,10.82
2023-04-21T03:25:38.057Z,10.81
2023-04-21T03:26:38.058Z,10.75
2023-04-21T03:27:38.069Z,10.78
2023-04-21T03:28:38.059Z,10.76
2023-04-21T03:29:38.067Z,10.75
2023-04-21T03:30:38.105Z,10.75
2023-04-21T03:31:38.150Z,10.82
2023-04-21T03:32:38.148Z,10.79
2023-04-21T03:33:38.091Z,10.76
2023-04-21T03:34:38.099Z,10.75
2023-04-21T03:35:38.094Z,10.68
2023-04-21T03:36:38.104Z,10.78
2023-04-21T03:37:38.102Z,10.76
2023-04-21T03:38:38.118Z,10.76
2023-04-21T03:39:38.108Z,10.71
2023-04-21T03:40:38.124Z,10.76
2023-04-21T03:41:38.119Z,10.71
2023-04-21T03:42:38.131Z,10.69
2023-04-21T03:43:38.134Z,10.74
2023-04-21T03:44:38.134Z,10.74
2023-04-21T03:45:38.186Z,10.74
2023-04-21T03:46:38.152Z,10.75
2023-04-21T03:47:38.205Z,10.75
2023-04-21T03:48:38.178Z,10.79
2023-04-21T03:49:38.160Z,10.76
2023-04-21T03:50:38.164Z,10.72
2023-04-21T03:51:38.182Z,10.75
2023-04-21T03:52:38.168Z,10.72
2023-04-21T03:53:38.178Z,10.71
2023-04-21T03:54:38.187Z,10.74
2023-04-21T03:55:38.185Z,10.75
2023-04-21T03:56:38.184Z,10.75
2023-04-21T03:57:38.205Z,10.72
2023-04-21T03:58:38.194Z,10.75
2023-04-21T03:59:38.197Z,10.78
2023-04-21T04:00:38.212Z,10.72
2023-04-21T04:01:38.206Z,10.74
2023-04-21T04:02:38.362Z,10.78
2023-04-21T04:03:38.385Z,10.76
2023-04-21T04:04:38.473Z,10.75
2023-04-21T04:05:38.547Z,10.76
2023-04-21T04:06:38.232Z,10.78
2023-04-21T04:07:38.240Z,10.74
2023-04-21T04:08:38.253Z,10.79
2023-04-21T04:09:38.242Z,10.75
2023-04-21T04:10:38.265Z,10.74
2023-04-21T04:11:38.252Z,10.74
2023-04-21T04:12:38.260Z,10.72
2023-04-21T04:13:38.260Z,10.68
2023-04-21T04:14:38.264Z,10.72
2023-04-21T04:15:38.308Z,10.69
2023-04-21T04:16:38.281Z,10.72
2023-04-21T04:17:38.317Z,10.71
2023-04-21T04:18:38.286Z,10.68
2023-04-21T04:19:38.288Z,10.68
2023-04-21T04:20:38.316Z,10.67
2023-04-21T04:21:38.291Z,10.69
2023-04-21T04:22:38.313Z,10.68
2023-04-21T04:23:38.308Z,10.68
2023-04-21T04:24:38.313Z,10.74
2023-04-21T04:25:38.314Z,10.69
2023-04-21T04:26:38.333Z,10.71
2023-04-21T04:27:38.336Z,10.69
2023-04-21T04:28:38.335Z,10.68
2023-04-21T04:29:38.342Z,10.74
2023-04-21T04:30:38.330Z,10.75
2023-04-21T04:31:38.384Z,10.71
2023-04-21T04:32:38.371Z,10.63
2023-04-21T04:33:38.341Z,10.67
2023-04-21T04:34:38.387Z,10.67
2023-04-21T04:35:38.358Z,10.71
2023-04-21T04:36:38.380Z,10.67
2023-04-21T04:37:38.364Z,10.74
2023-04-21T04:38:38.378Z,10.72
2023-04-21T04:39:38.375Z,10.76
2023-04-21T04:40:38.381Z,10.79
2023-04-21T04:41:38.384Z,10.78
2023-04-21T04:42:38.387Z,10.81
2023-04-21T04:43:38.383Z,10.76
2023-04-21T04:44:38.395Z,10.75
2023-04-21T04:45:38.401Z,10.76
2023-04-21T04:46:38.434Z,10.78
2023-04-21T04:47:38.455Z,10.86
2023-04-21T04:48:38.422Z,10.84
2023-04-21T04:49:38.446Z,10.82
2023-04-21T04:50:38.414Z,10.87
2023-04-21T04:51:38.432Z,10.89
2023-04-21T04:52:38.460Z,10.89
2023-04-21T04:53:38.437Z,10.90
2023-04-21T04:54:38.432Z,10.97
2023-04-21T04:55:38.437Z,10.93
2023-04-21T04:56:38.453Z,10.97
2023-04-21T04:57:38.449Z,11.00
2023-04-21T04:58:38.460Z,11.00
2023-04-21T04:59:38.453Z,11.00
2023-04-21T05:00:38.458Z,11.00
2023-04-21T05:01:38.510Z,10.99
2023-04-21T05:02:38.780Z,11.07
2023-04-21T05:03:38.637Z,11.02
2023-04-21T05:04:38.550Z,11.07
2023-04-21T05:05:38.496Z,11.05
2023-04-21T05:06:38.500Z,11.10
2023-04-21T05:07:38.506Z,11.11
2023-04-21T05:08:38.539Z,11.08
2023-04-21T05:09:38.506Z,11.14
2023-04-21T05:10:38.520Z,11.17
2023-04-21T05:11:38.512Z,11.22
2023-04-21T05:12:38.539Z,11.18
2023-04-21T05:13:40.016Z,11.25
2023-04-21T05:14:38.542Z,11.22
2023-04-21T05:15:38.566Z,11.19
2023-04-21T05:16:38.632Z,11.29
2023-04-21T05:17:38.594Z,11.33
2023-04-21T05:18:38.617Z,11.36
2023-04-21T05:19:38.576Z,11.37
2023-04-21T05:20:38.567Z,11.36
2023-04-21T05:21:38.570Z,11.40
2023-04-21T05:22:38.601Z,11.36
2023-04-21T05:23:38.573Z,11.48
2023-04-21T05:24:38.602Z,11.50
2023-04-21T05:25:38.622Z,11.48
2023-04-21T05:26:38.634Z,11.48
2023-04-21T05:27:38.594Z,11.52
2023-04-21T05:28:38.605Z,11.57
2023-04-21T05:29:38.597Z,11.59
2023-04-21T05:30:38.610Z,11.62
2023-04-21T05:31:38.687Z,11.65
2023-04-21T05:32:38.776Z,11.72
2023-04-21T05:33:38.618Z,11.69
2023-04-21T05:34:38.637Z,11.72
2023-04-21T05:35:38.633Z,11.68
2023-04-21T05:36:38.630Z,11.78
2023-04-21T05:37:38.649Z,11.73
2023-04-21T05:38:38.650Z,11.81
2023-04-21T05:39:38.664Z,11.68
2023-04-21T05:40:38.682Z,11.73
2023-04-21T05:41:38.666Z,11.78
2023-04-21T05:42:38.667Z,11.81
2023-04-21T05:43:38.674Z,11.73
2023-04-21T05:44:38.678Z,11.81
2023-04-21T05:45:38.698Z,11.78
2023-04-21T05:46:38.738Z,11.78
2023-04-21T05:47:38.697Z,11.88
2023-04-21T05:48:38.699Z,11.88
2023-04-21T05:49:38.728Z,11.86
2023-04-21T05:50:38.699Z,11.88
2023-04-21T05:51:38.705Z,11.91
2023-04-21T05:52:38.718Z,11.91
2023-04-21T05:53:38.723Z,12.02
2023-04-21T05:54:38.724Z,12.03
2023-04-21T05:55:38.731Z,12.13
2023-04-21T05:56:38.760Z,12.13
2023-04-21T05:57:38.734Z,12.17
2023-04-21T05:58:38.745Z,12.12
2023-04-21T05:59:38.781Z,12.13
2023-04-21T06:00:38.756Z,12.20
2023-04-21T06:01:38.769Z,12.17
2023-04-21T06:02:38.953Z,12.17
2023-04-21T06:03:38.878Z,12.24
2023-04-21T06:04:38.971Z,12.21
2023-04-21T06:05:38.826Z,12.35
2023-04-21T06:06:38.785Z,12.35
2023-04-21T06:07:38.797Z,12.32
2023-04-21T06:08:38.793Z,12.31
2023-04-21T06:09:38.803Z,12.27
2023-04-21T06:10:38.810Z,12.28
2023-04-21T06:11:38.818Z,12.21
2023-04-21T06:12:38.854Z,12.18
2023-04-21T06:13:39.497Z,12.35
2023-04-21T06:14:38.827Z,12.24
2023-04-21T06:15:38.825Z,12.21
2023-04-21T06:16:38.921Z,12.29
2023-04-21T06:17:38.865Z,12.28
2023-04-21T06:18:38.846Z,12.35
2023-04-21T06:19:38.865Z,12.31
2023-04-21T06:20:38.860Z,12.43
2023-04-21T06:21:38.863Z,12.43
2023-04-21T06:22:38.884Z,12.37
2023-04-21T06:23:38.875Z,12.39
2023-04-21T06:24:38.881Z,12.47
2023-04-21T06:25:38.878Z,12.50
2023-04-21T06:26:38.887Z,12.53
2023-04-21T06:27:38.888Z,12.55
2023-04-21T06:28:38.926Z,12.65
2023-04-21T06:29:38.914Z,12.50
2023-04-21T06:30:38.915Z,12.60
2023-04-21T06:31:38.956Z,12.58
2023-04-21T06:32:38.952Z,12.60
2023-04-21T06:33:38.929Z,12.65
2023-04-21T06:34:38.929Z,12.73
2023-04-21T06:35:38.933Z,12.76
2023-04-21T06:36:38.941Z,12.75
2023-04-21T06:37:38.951Z,12.80
2023-04-21T06:38:38.949Z,12.83
2023-04-21T06:39:38.960Z,12.75
2023-04-21T06:40:38.963Z,12.73
2023-04-21T06:41:38.973Z,12.75
2023-04-21T06:42:38.971Z,12.76
2023-04-21T06:43:38.977Z,12.82
2023-04-21T06:44:39.010Z,12.82
2023-04-21T06:45:38.999Z,12.72
2023-04-21T06:46:39.032Z,12.79
2023-04-21T06:47:39.018Z,12.80
2023-04-21T06:48:39.002Z,12.86
2023-04-21T06:49:39.008Z,12.83
2023-04-21T06:50:39.054Z,12.94
2023-04-21T06:51:39.022Z,12.87
2023-04-21T06:52:39.024Z,12.97
2023-04-21T06:53:39.056Z,12.98
2023-04-21T06:54:39.042Z,12.95
2023-04-21T06:55:39.045Z,12.95
2023-04-21T06:56:39.054Z,13.01
2023-04-21T06:57:39.080Z,13.08
2023-04-21T06:58:39.062Z,13.12
2023-04-21T06:59:39.077Z,13.16
2023-04-21T07:00:39.482Z,13.22
2023-04-21T07:01:39.325Z,13.20
2023-04-21T07:02:39.201Z,13.25
2023-04-21T07:03:39.175Z,13.20
2023-04-21T07:04:39.166Z,13.19
2023-04-21T07:05:39.098Z,13.37
2023-04-21T07:06:39.105Z,13.33
2023-04-21T07:07:39.118Z,13.42
2023-04-21T07:08:39.115Z,13.38
2023-04-21T07:09:39.118Z,13.39
2023-04-21T07:10:39.130Z,13.50
2023-04-21T07:11:39.144Z,13.50
2023-04-21T07:12:39.149Z,13.54
2023-04-21T07:13:39.144Z,13.50
2023-04-21T07:14:39.159Z,13.54
2023-04-21T07:15:39.172Z,13.57
2023-04-21T07:16:39.256Z,13.57
2023-04-21T07:17:39.199Z,13.56
2023-04-21T07:18:39.182Z,13.57
2023-04-21T07:19:39.186Z,13.72
2023-04-21T07:20:39.186Z,13.71
2023-04-21T07:21:39.205Z,13.78
2023-04-21T07:22:39.195Z,13.75
2023-04-21T07:23:39.207Z,13.93
2023-04-21T07:24:39.210Z,13.87
2023-04-21T07:37:11.697Z,14.30
2023-04-21T07:38:11.663Z,14.37
2023-04-21T07:39:11.677Z,14.40
2023-04-21T07:40:11.713Z,14.54
2023-04-21T07:41:11.677Z,14.48
2023-04-21T07:42:11.684Z,14.58
2023-04-21T07:43:11.691Z,14.58
2023-04-21T07:44:11.685Z,14.59
2023-04-21T08:34:42.070Z,27.49
2023-04-21T08:35:54.803Z,27.55
2023-04-21T08:36:41.907Z,27.63
2023-04-21T08:37:41.928Z,27.82
2023-04-21T08:38:41.939Z,27.89
2023-04-21T08:39:41.925Z,27.98
2023-04-21T08:40:41.953Z,27.95
2023-04-21T08:41:41.947Z,28.15
2023-04-21T16:06:50.580Z,21.50
2023-04-21T16:07:50.580Z,21.58
2023-04-21T16:08:50.614Z,21.51
2023-04-21T16:09:50.616Z,21.52
2023-04-21T16:10:50.630Z,21.51
2023-04-21T16:12:48.194Z,21.48
2023-04-21T16:13:48.298Z,21.43
2023-04-21T16:16:00.888Z,21.42
2023-04-21T16:17:00.978Z,21.42
2023-04-21T16:18:00.898Z,21.39
2023-04-21T16:19:00.884Z,21.37
2023-04-21T16:20:48.496Z,21.32
2023-04-21T16:21:48.470Z,21.35
2023-04-21T16:22:48.500Z,21.36
2023-04-21T16:23:48.526Z,21.33
2023-04-21T16:24:48.570Z,21.37
2023-04-21T16:25:48.541Z,21.40
2023-04-21T16:26:48.501Z,21.39
2023-04-21T16:27:48.551Z,21.45
2023-04-21T16:28:48.600Z,21.37
2023-04-21T16:29:48.605Z,21.46
2023-04-21T16:30:48.559Z,21.51
2023-04-21T16:31:48.686Z,21.46
2023-04-21T16:32:48.610Z,21.45
2023-04-21T16:33:48.594Z,21.46
2023-04-21T16:34:48.631Z,21.51
2023-04-21T16:35:48.707Z,21.43
2023-04-21T16:36:48.658Z,21.45
2023-04-21T16:37:48.637Z,21.40
2023-04-21T16:38:48.681Z,21.45
2023-04-21T16:39:48.739Z,21.51
